Terminal Aerodrome Forecast
Issued by NWS Cleveland, OH

Home | Current Version | Previous Version | Graphics & Text | Print | Product List | Glossary Off
Versions: 1 2 3 4 5 6 7 8 9 10 11 12 13 14 15 16 17 18 19 20

000
FTUS41 KCLE 191137
TAFERI
TAF
KERI 191137Z 1912/2012 17015G25KT P6SM SCT050 BKN100
      TEMPO 1913/1915 4SM -SHRA BKN020
     FM191500 18015G25KT 3SM -SHRA BKN012 OVC025
     FM191800 19015G25KT 3SM -SHRA BR BKN008 OVC025
     FM192300 19015G25KT 4SM -SHRA BR SCT008 OVC015=

USA.gov is the U.S. government's official web portal to all federal, state and local government web resources and services.